sensor_id;sensor_type;location;lat;lon;timestamp;pressure;altitude;pressure_sealevel;temperature;humidity
39357;BME280;25077;50.302;18.996;2022-08-21T00:01:26;97690.75;;;18.82;84.99
39357;BME280;25077;50.302;18.996;2022-08-21T00:04:29;97685.63;;;18.84;85.22
39357;BME280;25077;50.302;18.996;2022-08-21T00:07:31;97676.38;;;18.78;85.11
39357;BME280;25077;50.302;18.996;2022-08-21T00:10:33;97674.44;;;18.75;84.60
39357;BME280;25077;50.302;18.996;2022-08-21T00:13:40;97678.38;;;18.74;85.06
39357;BME280;25077;50.302;18.996;2022-08-21T00:16:42;97684.25;;;18.76;84.77
39357;BME280;25077;50.302;18.996;2022-08-21T00:19:44;97683.09;;;18.74;85.36
39357;BME280;25077;50.302;18.996;2022-08-21T00:22:46;97676.84;;;18.73;84.96
39357;BME280;25077;50.302;18.996;2022-08-21T00:25:49;97675.25;;;18.76;85.07
39357;BME280;25077;50.302;18.996;2022-08-21T00:28:52;97676.78;;;18.77;84.77
39357;BME280;25077;50.302;18.996;2022-08-21T00:31:54;97668.47;;;18.80;84.70
39357;BME280;25077;50.302;18.996;2022-08-21T00:34:56;97664.03;;;18.86;85.01
39357;BME280;25077;50.302;18.996;2022-08-21T00:37:59;97664.28;;;18.92;85.45
39357;BME280;25077;50.302;18.996;2022-08-21T00:41:02;97660.25;;;18.97;85.16
39357;BME280;25077;50.302;18.996;2022-08-21T00:44:09;97657.84;;;18.99;84.63
39357;BME280;25077;50.302;18.996;2022-08-21T00:47:12;97660.16;;;19.00;85.00
39357;BME280;25077;50.302;18.996;2022-08-21T00:50:14;97653.50;;;19.01;84.25
39357;BME280;25077;50.302;18.996;2022-08-21T00:53:16;97649.09;;;19.04;83.97
39357;BME280;25077;50.302;18.996;2022-08-21T00:56:19;97649.09;;;19.04;84.50
39357;BME280;25077;50.302;18.996;2022-08-21T00:59:25;97641.56;;;19.08;83.87
39357;BME280;25077;50.302;18.996;2022-08-21T01:02:27;97634.03;;;19.12;84.07
39357;BME280;25077;50.302;18.996;2022-08-21T01:05:29;97632.06;;;19.12;83.78
39357;BME280;25077;50.302;18.996;2022-08-21T01:08:32;97619.44;;;19.15;83.76
39357;BME280;25077;50.302;18.996;2022-08-21T01:11:34;97622.94;;;19.15;83.92
39357;BME280;25077;50.302;18.996;2022-08-21T01:14:38;97614.28;;;19.17;83.50
39357;BME280;25077;50.302;18.996;2022-08-21T01:17:42;97612.31;;;19.17;83.63
39357;BME280;25077;50.302;18.996;2022-08-21T01:20:55;97611.88;;;19.19;83.84
39357;BME280;25077;50.302;18.996;2022-08-21T01:23:57;97606.03;;;19.17;83.21
39357;BME280;25077;50.302;18.996;2022-08-21T01:26:59;97611.53;;;19.17;83.79
39357;BME280;25077;50.302;18.996;2022-08-21T01:30:10;97599.69;;;19.20;83.55
39357;BME280;25077;50.302;18.996;2022-08-21T01:33:12;97599.63;;;19.24;83.80
39357;BME280;25077;50.302;18.996;2022-08-21T01:36:15;97593.25;;;19.27;83.43
39357;BME280;25077;50.302;18.996;2022-08-21T01:39:17;97592.47;;;19.26;83.83
39357;BME280;25077;50.302;18.996;2022-08-21T01:42:20;97581.50;;;19.26;83.03
39357;BME280;25077;50.302;18.996;2022-08-21T01:45:22;97572.06;;;19.27;83.05
39357;BME280;25077;50.302;18.996;2022-08-21T01:48:24;97576.00;;;19.26;83.25
39357;BME280;25077;50.302;18.996;2022-08-21T01:51:27;97566.25;;;19.25;83.31
39357;BME280;25077;50.302;18.996;2022-08-21T01:54:29;97561.44;;;19.29;83.44
39357;BME280;25077;50.302;18.996;2022-08-21T01:57:32;97555.94;;;19.29;83.09
39357;BME280;25077;50.302;18.996;2022-08-21T02:00:34;97549.25;;;19.30;83.07
39357;BME280;25077;50.302;18.996;2022-08-21T02:03:37;97543.75;;;19.30;83.38
39357;BME280;25077;50.302;18.996;2022-08-21T02:06:40;97532.78;;;19.30;83.04
39357;BME280;25077;50.302;18.996;2022-08-21T02:09:42;97537.06;;;19.31;83.57
39357;BME280;25077;50.302;18.996;2022-08-21T02:12:44;97537.50;;;19.30;83.44
39357;BME280;25077;50.302;18.996;2022-08-21T02:15:46;97546.13;;;19.28;82.82
39357;BME280;25077;50.302;18.996;2022-08-21T02:18:48;97533.63;;;19.27;82.78
39357;BME280;25077;50.302;18.996;2022-08-21T02:21:54;97527.81;;;19.25;83.58
39357;BME280;25077;50.302;18.996;2022-08-21T02:24:56;97527.81;;;19.25;83.24
39357;BME280;25077;50.302;18.996;2022-08-21T02:27:59;97538.34;;;19.27;83.42
39357;BME280;25077;50.302;18.996;2022-08-21T02:31:04;97537.56;;;19.26;83.41
39357;BME280;25077;50.302;18.996;2022-08-21T02:34:06;97545.50;;;19.24;83.42
39357;BME280;25077;50.302;18.996;2022-08-21T02:37:11;97540.00;;;19.24;83.16
39357;BME280;25077;50.302;18.996;2022-08-21T02:40:14;97533.31;;;19.25;82.99
39357;BME280;25077;50.302;18.996;2022-08-21T02:43:18;97532.09;;;19.26;83.63
39357;BME280;25077;50.302;18.996;2022-08-21T02:46:20;97528.13;;;19.27;83.41
39357;BME280;25077;50.302;18.996;2022-08-21T02:49:22;97522.66;;;19.27;83.24
39357;BME280;25077;50.302;18.996;2022-08-21T02:52:26;97540.66;;;19.28;82.82
39357;BME280;25077;50.302;18.996;2022-08-21T02:55:30;97540.31;;;19.26;83.18
39357;BME280;25077;50.302;18.996;2022-08-21T02:58:34;97538.44;;;19.23;82.74
39357;BME280;25077;50.302;18.996;2022-08-21T03:01:37;97549.41;;;19.23;82.73
39357;BME280;25077;50.302;18.996;2022-08-21T03:04:39;97545.91;;;19.22;82.81
39357;BME280;25077;50.302;18.996;2022-08-21T03:07:43;97546.66;;;19.23;83.64
39357;BME280;25077;50.302;18.996;2022-08-21T03:10:51;97554.13;;;19.22;83.17
39357;BME280;25077;50.302;18.996;2022-08-21T03:13:53;97547.88;;;19.22;83.47
39357;BME280;25077;50.302;18.996;2022-08-21T03:16:55;97550.28;;;19.20;83.42
39357;BME280;25077;50.302;18.996;2022-08-21T03:19:57;97555.00;;;19.19;83.40
39357;BME280;25077;50.302;18.996;2022-08-21T03:23:02;97551.06;;;19.20;83.11
39357;BME280;25077;50.302;18.996;2022-08-21T03:26:04;97556.09;;;19.22;83.88
39357;BME280;25077;50.302;18.996;2022-08-21T03:29:06;97558.44;;;19.24;84.00
39357;BME280;25077;50.302;18.996;2022-08-21T03:32:08;97559.53;;;19.26;83.64
39357;BME280;25077;50.302;18.996;2022-08-21T03:35:10;97563.81;;;19.27;83.37
39357;BME280;25077;50.302;18.996;2022-08-21T03:38:14;97568.97;;;19.25;83.47
39357;BME280;25077;50.302;18.996;2022-08-21T03:41:16;97565.47;;;19.25;83.10
39357;BME280;25077;50.302;18.996;2022-08-21T03:44:17;97582.25;;;19.27;83.62
39357;BME280;25077;50.302;18.996;2022-08-21T03:47:19;97579.09;;;19.28;83.58
39357;BME280;25077;50.302;18.996;2022-08-21T03:50:23;97574.72;;;19.31;83.65
39357;BME280;25077;50.302;18.996;2022-08-21T03:53:27;97582.84;;;19.34;83.61
39357;BME280;25077;50.302;18.996;2022-08-21T03:56:30;97580.09;;;19.34;83.12
39357;BME280;25077;50.302;18.996;2022-08-21T03:59:32;97578.03;;;19.38;83.29
39357;BME280;25077;50.302;18.996;2022-08-21T04:02:34;97583.44;;;19.42;82.93
39357;BME280;25077;50.302;18.996;2022-08-21T04:05:36;97576.28;;;19.44;82.71
39357;BME280;25077;50.302;18.996;2022-08-21T04:08:40;97581.69;;;19.48;83.31
39357;BME280;25077;50.302;18.996;2022-08-21T04:11:43;97574.56;;;19.51;83.07
39357;BME280;25077;50.302;18.996;2022-08-21T04:14:46;97577.97;;;19.55;83.38
39357;BME280;25077;50.302;18.996;2022-08-21T04:17:48;97576.72;;;19.59;82.55
39357;BME280;25077;50.302;18.996;2022-08-21T04:20:51;97573.53;;;19.61;83.15
39357;BME280;25077;50.302;18.996;2022-08-21T04:23:55;97571.09;;;19.63;82.31
39357;BME280;25077;50.302;18.996;2022-08-21T04:26:57;97571.09;;;19.63;82.71
39357;BME280;25077;50.302;18.996;2022-08-21T04:29:59;97570.25;;;19.66;82.71
39357;BME280;25077;50.302;18.996;2022-08-21T04:33:01;97574.09;;;19.68;82.19
39357;BME280;25077;50.302;18.996;2022-08-21T04:36:05;97577.19;;;19.70;82.33
39357;BME280;25077;50.302;18.996;2022-08-21T04:39:09;97578.28;;;19.73;82.32
39357;BME280;25077;50.302;18.996;2022-08-21T04:42:11;97574.66;;;19.76;82.21
39357;BME280;25077;50.302;18.996;2022-08-21T04:45:18;97575.34;;;19.80;82.50
39357;BME280;25077;50.302;18.996;2022-08-21T04:48:23;97579.94;;;19.83;82.22
39357;BME280;25077;50.302;18.996;2022-08-21T04:51:28;97577.53;;;19.85;82.25
39357;BME280;25077;50.302;18.996;2022-08-21T04:54:32;97580.94;;;19.89;82.19
39357;BME280;25077;50.302;18.996;2022-08-21T04:57:35;97577.34;;;19.92;82.11
39357;BME280;25077;50.302;18.996;2022-08-21T05:00:37;97589.31;;;19.98;82.06
39357;BME280;25077;50.302;18.996;2022-08-21T05:03:40;97580.97;;;20.02;82.21
39357;BME280;25077;50.302;18.996;2022-08-21T05:06:44;97587.13;;;20.06;81.92
39357;BME280;25077;50.302;18.996;2022-08-21T05:09:50;97592.19;;;20.08;81.80
39357;BME280;25077;50.302;18.996;2022-08-21T05:12:53;97592.53;;;20.10;81.77
39357;BME280;25077;50.302;18.996;2022-08-21T05:15:56;97604.28;;;20.10;81.50
39357;BME280;25077;50.302;18.996;2022-08-21T05:18:58;97613.63;;;20.13;81.61
39357;BME280;25077;50.302;18.996;2022-08-21T05:22:00;97617.28;;;20.10;81.31
39357;BME280;25077;50.302;18.996;2022-08-21T05:25:05;97616.91;;;20.08;81.17
39357;BME280;25077;50.302;18.996;2022-08-21T05:28:08;97628.25;;;19.97;81.38
39357;BME280;25077;50.302;18.996;2022-08-21T05:31:10;97627.56;;;19.93;81.46
39357;BME280;25077;50.302;18.996;2022-08-21T05:34:13;97632.06;;;19.87;81.70
39357;BME280;25077;50.302;18.996;2022-08-21T05:37:15;97626.66;;;19.83;81.17
39357;BME280;25077;50.302;18.996;2022-08-21T05:40:18;97627.09;;;19.82;82.18
39357;BME280;25077;50.302;18.996;2022-08-21T05:43:20;97619.94;;;19.84;81.28
39357;BME280;25077;50.302;18.996;2022-08-21T05:46:23;97622.16;;;19.89;81.65
39357;BME280;25077;50.302;18.996;2022-08-21T05:49:25;97617.66;;;19.95;81.75
39357;BME280;25077;50.302;18.996;2022-08-21T05:52:27;97624.59;;;20.00;81.21
39357;BME280;25077;50.302;18.996;2022-08-21T05:55:30;97621.09;;;19.99;81.68
39357;BME280;25077;50.302;18.996;2022-08-21T05:58:33;97630.19;;;19.96;81.33
39357;BME280;25077;50.302;18.996;2022-08-21T06:01:35;97629.00;;;19.97;81.27
39357;BME280;25077;50.302;18.996;2022-08-21T06:04:38;97630.31;;;19.93;81.63
39357;BME280;25077;50.302;18.996;2022-08-21T06:07:40;97632.06;;;19.87;81.11
39357;BME280;25077;50.302;18.996;2022-08-21T06:10:43;97621.47;;;19.85;81.69
39357;BME280;25077;50.302;18.996;2022-08-21T06:13:45;97626.56;;;19.87;81.80
39357;BME280;25077;50.302;18.996;2022-08-21T06:16:47;97624.59;;;19.87;81.73
39357;BME280;25077;50.302;18.996;2022-08-21T06:19:51;97623.13;;;19.83;81.54
39357;BME280;25077;50.302;18.996;2022-08-21T06:22:53;97631.16;;;19.77;82.40
39357;BME280;25077;50.302;18.996;2022-08-21T06:25:56;97627.63;;;19.77;82.61
39357;BME280;25077;50.302;18.996;2022-08-21T06:28:58;97630.47;;;19.73;82.29
39357;BME280;25077;50.302;18.996;2022-08-21T06:32:00;97631.00;;;19.68;82.92
39357;BME280;25077;50.302;18.996;2022-08-21T06:35:04;97646.47;;;19.62;82.86
39357;BME280;25077;50.302;18.996;2022-08-21T06:38:06;97641.56;;;19.24;81.34
39357;BME280;25077;50.302;18.996;2022-08-21T06:41:09;97652.72;;;19.01;81.60
39357;BME280;25077;50.302;18.996;2022-08-21T06:44:11;97648.22;;;18.74;81.25
39357;BME280;25077;50.302;18.996;2022-08-21T06:47:13;97663.00;;;18.60;81.37
39357;BME280;25077;50.302;18.996;2022-08-21T06:50:16;97647.84;;;18.39;81.74
39357;BME280;25077;50.302;18.996;2022-08-21T06:53:19;97658.53;;;18.34;81.67
39357;BME280;25077;50.302;18.996;2022-08-21T06:56:23;97664.94;;;18.27;80.66
39357;BME280;25077;50.302;18.996;2022-08-21T06:59:25;97662.31;;;18.20;81.76
39357;BME280;25077;50.302;18.996;2022-08-21T07:02:27;97656.84;;;18.20;81.64
39357;BME280;25077;50.302;18.996;2022-08-21T07:05:29;97659.97;;;18.22;80.62
39357;BME280;25077;50.302;18.996;2022-08-21T07:08:31;97675.25;;;18.20;78.51
39357;BME280;25077;50.302;18.996;2022-08-21T07:11:35;97668.66;;;18.17;78.67
39357;BME280;25077;50.302;18.996;2022-08-21T07:14:37;97671.91;;;18.12;77.81
39357;BME280;25077;50.302;18.996;2022-08-21T07:17:39;97672.25;;;18.14;78.12
39357;BME280;25077;50.302;18.996;2022-08-21T07:20:41;97658.81;;;18.20;78.00
39357;BME280;25077;50.302;18.996;2022-08-21T07:23:46;97669.66;;;18.27;77.17
39357;BME280;25077;50.302;18.996;2022-08-21T07:26:50;97668.50;;;18.24;77.19
39357;BME280;25077;50.302;18.996;2022-08-21T07:29:52;97667.84;;;18.36;77.42
39357;BME280;25077;50.302;18.996;2022-08-21T07:32:55;97672.69;;;18.49;77.34
39357;BME280;25077;50.302;18.996;2022-08-21T07:35:57;97663.72;;;18.64;76.71
39357;BME280;25077;50.302;18.996;2022-08-21T07:38:59;97665.75;;;18.80;77.03
39357;BME280;25077;50.302;18.996;2022-08-21T07:42:02;97666.19;;;18.95;75.82
39357;BME280;25077;50.302;18.996;2022-08-21T07:45:06;97668.56;;;19.09;76.64
39357;BME280;25077;50.302;18.996;2022-08-21T07:48:08;97672.25;;;19.19;76.05
39357;BME280;25077;50.302;18.996;2022-08-21T07:51:12;97669.16;;;19.33;76.25
39357;BME280;25077;50.302;18.996;2022-08-21T07:54:14;97658.66;;;19.44;76.19
39357;BME280;25077;50.302;18.996;2022-08-21T07:57:17;97665.38;;;19.60;74.87
39357;BME280;25077;50.302;18.996;2022-08-21T08:00:22;97663.44;;;19.73;74.95
39357;BME280;25077;50.302;18.996;2022-08-21T08:03:24;97659.09;;;19.88;75.52
39357;BME280;25077;50.302;18.996;2022-08-21T08:06:26;97661.09;;;20.00;74.16
39357;BME280;25077;50.302;18.996;2022-08-21T08:09:28;97659.81;;;20.18;74.02
39357;BME280;25077;50.302;18.996;2022-08-21T08:12:32;97656.53;;;20.23;73.26
39357;BME280;25077;50.302;18.996;2022-08-21T08:15:33;97653.78;;;20.36;73.06
39357;BME280;25077;50.302;18.996;2022-08-21T08:18:36;97659.69;;;20.50;73.03
39357;BME280;25077;50.302;18.996;2022-08-21T08:21:37;97653.53;;;20.72;73.42
39357;BME280;25077;50.302;18.996;2022-08-21T08:24:39;97648.75;;;20.98;72.83
39357;BME280;25077;50.302;18.996;2022-08-21T08:27:43;97658.22;;;21.22;71.71
39357;BME280;25077;50.302;18.996;2022-08-21T08:30:45;97662.59;;;21.32;70.87
39357;BME280;25077;50.302;18.996;2022-08-21T08:33:47;97657.94;;;21.42;70.58
39357;BME280;25077;50.302;18.996;2022-08-21T08:36:49;97654.06;;;21.52;69.71
39357;BME280;25077;50.302;18.996;2022-08-21T08:39:51;97653.53;;;21.67;69.85
39357;BME280;25077;50.302;18.996;2022-08-21T08:42:55;97654.59;;;21.82;68.79
39357;BME280;25077;50.302;18.996;2022-08-21T08:45:58;97646.78;;;22.02;68.86
39357;BME280;25077;50.302;18.996;2022-08-21T08:49:08;97649.66;;;22.21;68.45
39357;BME280;25077;50.302;18.996;2022-08-21T08:52:18;97653.09;;;22.34;67.20
39357;BME280;25077;50.302;18.996;2022-08-21T08:55:27;97652.22;;;22.46;67.31
39357;BME280;25077;50.302;18.996;2022-08-21T08:58:33;97650.44;;;22.52;65.80
39357;BME280;25077;50.302;18.996;2022-08-21T09:01:36;97647.75;;;22.40;65.37
39357;BME280;25077;50.302;18.996;2022-08-21T09:04:38;97639.94;;;22.38;64.72
39357;BME280;25077;50.302;18.996;2022-08-21T09:07:47;97640.63;;;22.20;64.24
39357;BME280;25077;50.302;18.996;2022-08-21T09:11:00;97641.97;;;22.16;64.06
39357;BME280;25077;50.302;18.996;2022-08-21T09:14:12;97648.81;;;22.11;63.70
39357;BME280;25077;50.302;18.996;2022-08-21T09:17:27;97645.50;;;21.94;64.31
39357;BME280;25077;50.302;18.996;2022-08-21T09:20:37;97651.72;;;22.07;64.47
39357;BME280;25077;50.302;18.996;2022-08-21T09:23:47;97673.13;;;22.03;63.97
39357;BME280;25077;50.302;18.996;2022-08-21T09:27:00;97651.09;;;22.03;64.43
39357;BME280;25077;50.302;18.996;2022-08-21T09:30:07;97650.50;;;22.08;64.66
39357;BME280;25077;50.302;18.996;2022-08-21T09:33:11;97657.34;;;22.26;64.76
39357;BME280;25077;50.302;18.996;2022-08-21T09:36:24;97653.66;;;22.29;64.00
39357;BME280;25077;50.302;18.996;2022-08-21T09:39:30;97648.91;;;22.29;64.15
39357;BME280;25077;50.302;18.996;2022-08-21T09:42:32;97646.97;;;22.39;65.14
39357;BME280;25077;50.302;18.996;2022-08-21T09:45:37;97652.34;;;22.65;64.15
39357;BME280;25077;50.302;18.996;2022-08-21T09:48:42;97648.53;;;22.71;63.97
39357;BME280;25077;50.302;18.996;2022-08-21T09:51:50;97643.53;;;22.88;63.15
39357;BME280;25077;50.302;18.996;2022-08-21T09:54:55;97654.56;;;22.88;63.04
39357;BME280;25077;50.302;18.996;2022-08-21T09:57:57;97650.19;;;22.69;63.20
39357;BME280;25077;50.302;18.996;2022-08-21T10:01:02;97636.16;;;22.76;62.60
39357;BME280;25077;50.302;18.996;2022-08-21T10:04:07;97637.81;;;22.73;63.39
39357;BME280;25077;50.302;18.996;2022-08-21T10:07:12;97652.53;;;22.79;62.13
39357;BME280;25077;50.302;18.996;2022-08-21T10:10:18;97638.31;;;22.81;61.72
39357;BME280;25077;50.302;18.996;2022-08-21T10:13:23;97649.94;;;22.85;62.35
39357;BME280;25077;50.302;18.996;2022-08-21T10:16:33;97655.22;;;22.92;62.66
39357;BME280;25077;50.302;18.996;2022-08-21T10:19:49;97662.34;;;22.80;61.36
39357;BME280;25077;50.302;18.996;2022-08-21T10:23:03;97679.97;;;22.43;61.30
39357;BME280;25077;50.302;18.996;2022-08-21T10:26:10;97662.22;;;22.22;62.58
39357;BME280;25077;50.302;18.996;2022-08-21T10:29:24;97657.00;;;22.24;62.43
39357;BME280;25077;50.302;18.996;2022-08-21T10:32:44;97661.00;;;22.23;61.69
39357;BME280;25077;50.302;18.996;2022-08-21T10:35:53;97674.75;;;22.14;62.55
39357;BME280;25077;50.302;18.996;2022-08-21T10:39:05;97669.09;;;21.95;62.95
39357;BME280;25077;50.302;18.996;2022-08-21T10:42:20;97677.81;;;21.94;62.77
39357;BME280;25077;50.302;18.996;2022-08-21T10:45:33;97662.94;;;21.91;63.35
39357;BME280;25077;50.302;18.996;2022-08-21T10:48:46;97673.00;;;21.85;63.50
39357;BME280;25077;50.302;18.996;2022-08-21T10:51:55;97677.13;;;21.68;63.53
39357;BME280;25077;50.302;18.996;2022-08-21T10:55:04;97667.94;;;21.49;64.58
39357;BME280;25077;50.302;18.996;2022-08-21T10:58:11;97667.09;;;21.39;64.82
39357;BME280;25077;50.302;18.996;2022-08-21T11:01:15;97664.25;;;21.30;64.92
39357;BME280;25077;50.302;18.996;2022-08-21T11:04:26;97676.16;;;21.01;65.31
39357;BME280;25077;50.302;18.996;2022-08-21T11:07:34;97677.28;;;20.91;65.12
39357;BME280;25077;50.302;18.996;2022-08-21T11:10:40;97666.50;;;20.84;65.24
39357;BME280;25077;50.302;18.996;2022-08-21T11:13:46;97673.75;;;20.91;65.87
39357;BME280;25077;50.302;18.996;2022-08-21T11:16:55;97675.75;;;20.90;65.89
39357;BME280;25077;50.302;18.996;2022-08-21T11:20:05;97672.66;;;20.88;65.77
39357;BME280;25077;50.302;18.996;2022-08-21T11:23:14;97676.59;;;20.87;66.57
39357;BME280;25077;50.302;18.996;2022-08-21T11:26:28;97677.72;;;20.77;66.32
39357;BME280;25077;50.302;18.996;2022-08-21T11:29:34;97678.38;;;20.81;66.53
39357;BME280;25077;50.302;18.996;2022-08-21T11:32:58;97676.75;;;20.84;66.22
39357;BME280;25077;50.302;18.996;2022-08-21T11:36:14;97672.00;;;20.84;66.34
39357;BME280;25077;50.302;18.996;2022-08-21T11:39:25;97684.78;;;20.78;66.72
39357;BME280;25077;50.302;18.996;2022-08-21T11:42:34;97680.25;;;20.59;67.02
39357;BME280;25077;50.302;18.996;2022-08-21T11:45:44;97681.13;;;20.56;66.98
39357;BME280;25077;50.302;18.996;2022-08-21T11:48:56;97679.69;;;20.51;67.07
39357;BME280;25077;50.302;18.996;2022-08-21T11:52:10;97677.63;;;20.42;67.30
39357;BME280;25077;50.302;18.996;2022-08-21T11:55:19;97684.28;;;20.41;67.74
39357;BME280;25077;50.302;18.996;2022-08-21T11:58:27;97678.25;;;20.46;67.51
39357;BME280;25077;50.302;18.996;2022-08-21T12:01:36;97677.84;;;20.61;67.48
39357;BME280;25077;50.302;18.996;2022-08-21T12:04:47;97679.06;;;20.60;66.87
39357;BME280;25077;50.302;18.996;2022-08-21T12:08:03;97691.78;;;20.53;66.66
39357;BME280;25077;50.302;18.996;2022-08-21T12:11:08;97673.09;;;20.48;67.71
39357;BME280;25077;50.302;18.996;2022-08-21T12:14:13;97672.53;;;20.41;68.16
39357;BME280;25077;50.302;18.996;2022-08-21T12:17:18;97680.06;;;20.24;68.46
39357;BME280;25077;50.302;18.996;2022-08-21T12:20:43;97673.91;;;20.20;68.77
39357;BME280;25077;50.302;18.996;2022-08-21T12:23:48;97664.44;;;20.21;68.77
39357;BME280;25077;50.302;18.996;2022-08-21T12:26:52;97670.81;;;20.18;68.58
39357;BME280;25077;50.302;18.996;2022-08-21T12:29:58;97671.03;;;20.23;68.47
39357;BME280;25077;50.302;18.996;2022-08-21T12:33:04;97675.25;;;20.28;68.84
39357;BME280;25077;50.302;18.996;2022-08-21T12:36:11;97671.41;;;20.25;68.49
39357;BME280;25077;50.302;18.996;2022-08-21T12:39:22;97676.31;;;20.18;69.18
39357;BME280;25077;50.302;18.996;2022-08-21T12:42:32;97670.34;;;20.07;69.60
39357;BME280;25077;50.302;18.996;2022-08-21T12:45:41;97687.88;;;19.84;69.97
39357;BME280;25077;50.302;18.996;2022-08-21T12:48:49;97683.53;;;19.54;71.22
39357;BME280;25077;50.302;18.996;2022-08-21T12:51:56;97667.59;;;19.32;71.55
39357;BME280;25077;50.302;18.996;2022-08-21T12:55:04;97673.81;;;19.20;71.93
39357;BME280;25077;50.302;18.996;2022-08-21T12:58:06;97670.47;;;19.12;71.70
39357;BME280;25077;50.302;18.996;2022-08-21T13:01:17;97675.69;;;19.07;71.81
39357;BME280;25077;50.302;18.996;2022-08-21T13:04:24;97673.97;;;18.97;73.00
39357;BME280;25077;50.302;18.996;2022-08-21T13:07:31;97676.81;;;18.93;72.39
39357;BME280;25077;50.302;18.996;2022-08-21T13:10:36;97687.19;;;18.85;73.45
39357;BME280;25077;50.302;18.996;2022-08-21T13:13:40;97696.06;;;18.73;74.69
39357;BME280;25077;50.302;18.996;2022-08-21T13:16:42;97700.84;;;18.33;74.54
39357;BME280;25077;50.302;18.996;2022-08-21T13:19:52;97695.78;;;17.92;74.96
39357;BME280;25077;50.302;18.996;2022-08-21T13:22:54;97696.38;;;17.59;76.27
39357;BME280;25077;50.302;18.996;2022-08-21T13:25:58;97695.59;;;17.35;77.24
39357;BME280;25077;50.302;18.996;2022-08-21T13:29:06;97696.19;;;17.23;78.51
39357;BME280;25077;50.302;18.996;2022-08-21T13:32:19;97691.19;;;17.18;79.88
39357;BME280;25077;50.302;18.996;2022-08-21T13:35:27;97699.63;;;17.04;80.27
39357;BME280;25077;50.302;18.996;2022-08-21T13:38:31;97705.19;;;16.97;79.02
39357;BME280;25077;50.302;18.996;2022-08-21T13:41:37;97712.78;;;16.86;80.17
39357;BME280;25077;50.302;18.996;2022-08-21T13:44:42;97708.53;;;16.81;79.92
39357;BME280;25077;50.302;18.996;2022-08-21T13:47:45;97706.63;;;16.78;79.73
39357;BME280;25077;50.302;18.996;2022-08-21T13:50:49;97700.47;;;16.74;79.76
39357;BME280;25077;50.302;18.996;2022-08-21T13:53:52;97710.25;;;16.71;80.32
39357;BME280;25077;50.302;18.996;2022-08-21T13:56:57;97710.25;;;16.71;80.00
39357;BME280;25077;50.302;18.996;2022-08-21T14:00:15;97710.97;;;16.75;80.76
39357;BME280;25077;50.302;18.996;2022-08-21T14:03:27;97718.41;;;16.75;80.61
39357;BME280;25077;50.302;18.996;2022-08-21T14:06:34;97723.56;;;16.69;81.10
39357;BME280;25077;50.302;18.996;2022-08-21T14:09:40;97723.56;;;16.69;81.08
39357;BME280;25077;50.302;18.996;2022-08-21T14:12:51;97715.66;;;16.75;79.78
39357;BME280;25077;50.302;18.996;2022-08-21T14:15:57;97732.13;;;16.71;80.01
39357;BME280;25077;50.302;18.996;2022-08-21T14:19:10;97735.50;;;16.52;81.53
39357;BME280;25077;50.302;18.996;2022-08-21T14:22:36;97742.22;;;16.44;81.45
39357;BME280;25077;50.302;18.996;2022-08-21T14:25:41;97743.41;;;16.43;81.30
39357;BME280;25077;50.302;18.996;2022-08-21T14:28:45;97746.59;;;16.38;81.68
39357;BME280;25077;50.302;18.996;2022-08-21T14:31:50;97739.25;;;16.35;80.82
39357;BME280;25077;50.302;18.996;2022-08-21T14:34:53;97747.00;;;16.40;81.37
39357;BME280;25077;50.302;18.996;2022-08-21T14:37:55;97738.78;;;16.40;81.16
39357;BME280;25077;50.302;18.996;2022-08-21T14:40:59;97737.19;;;16.42;80.58
39357;BME280;25077;50.302;18.996;2022-08-21T14:44:04;97728.19;;;16.45;80.85
39357;BME280;25077;50.302;18.996;2022-08-21T14:47:07;97732.50;;;16.43;81.66
39357;BME280;25077;50.302;18.996;2022-08-21T14:50:10;97737.91;;;16.46;80.32
39357;BME280;25077;50.302;18.996;2022-08-21T14:53:13;97743.78;;;16.45;80.34
39357;BME280;25077;50.302;18.996;2022-08-21T14:56:15;97755.19;;;16.40;80.19
39357;BME280;25077;50.302;18.996;2022-08-21T14:59:18;97755.69;;;16.27;81.95
39357;BME280;25077;50.302;18.996;2022-08-21T15:02:21;97752.72;;;16.15;81.66
39357;BME280;25077;50.302;18.996;2022-08-21T15:05:23;97749.19;;;16.18;82.33
39357;BME280;25077;50.302;18.996;2022-08-21T15:08:25;97751.88;;;16.21;81.05
39357;BME280;25077;50.302;18.996;2022-08-21T15:11:28;97756.16;;;16.22;81.50
39357;BME280;25077;50.302;18.996;2022-08-21T15:14:33;97756.22;;;16.19;81.68
39357;BME280;25077;50.302;18.996;2022-08-21T15:17:36;97751.59;;;16.12;81.80
39357;BME280;25077;50.302;18.996;2022-08-21T15:20:39;97761.00;;;16.08;82.18
39357;BME280;25077;50.302;18.996;2022-08-21T15:23:41;97757.50;;;16.07;81.81
39357;BME280;25077;50.302;18.996;2022-08-21T15:26:44;97770.41;;;16.03;82.37
39357;BME280;25077;50.302;18.996;2022-08-21T15:29:48;97774.75;;;15.97;82.54
39357;BME280;25077;50.302;18.996;2022-08-21T15:32:52;97768.97;;;15.88;83.14
39357;BME280;25077;50.302;18.996;2022-08-21T15:35:54;97766.22;;;15.91;82.21
39357;BME280;25077;50.302;18.996;2022-08-21T15:38:56;97769.72;;;15.92;83.19
39357;BME280;25077;50.302;18.996;2022-08-21T15:41:58;97761.53;;;15.92;82.65
39357;BME280;25077;50.302;18.996;2022-08-21T15:45:03;97765.53;;;15.84;82.41
39357;BME280;25077;50.302;18.996;2022-08-21T15:48:05;97754.66;;;15.76;82.83
39357;BME280;25077;50.302;18.996;2022-08-21T15:51:07;97757.78;;;15.75;83.27
39357;BME280;25077;50.302;18.996;2022-08-21T15:54:10;97761.72;;;15.70;83.30
39357;BME280;25077;50.302;18.996;2022-08-21T15:57:14;97770.69;;;15.71;82.85
39357;BME280;25077;50.302;18.996;2022-08-21T16:00:20;97772.28;;;15.68;83.44
39357;BME280;25077;50.302;18.996;2022-08-21T16:03:23;97773.44;;;15.71;83.03
39357;BME280;25077;50.302;18.996;2022-08-21T16:06:26;97776.28;;;15.60;83.52